Thuin, Belgium
Current Conditions -  °F | °C
As of 6:20 PM on Sunday 21 Dec 2014 (Local Time) from EBCI Reporting Station
Light Rain Light Rain  
Wind Chill:   Ceiling: 1200
Heat Index:   Visibility: 3mi
Dew Point:   Wind: 23mph
Humidity: 87%   Direction: 220°SW
Pressure: 30.33"   Gusts: 35mph
Location:  50.34°N, 4.29°E
Report Text: EBCI 211720Z 22020G30KT 5000 -RADZ BR SCT007 BKN012 07/05 Q1027 TEMPO 23018G30KT 3000 BR BKN0008
Loading
Personal Weather Stations






























Interactive Weather Map New forecast layout! Learn more

10-Day Weather Forecast

Advertisements
Track Severe Weather on mobile